Kezdőlap
METAR-TAF:

METAR-TAF

Repülőterek :

Umiujaq, Québec, Kanada

földrajzi szélesség: 56-32N, földrajzi hosszúság: 076-31W, magasság: 71 m

Jelenlegi meteorológiai megfigyelések

A jelentés 6 órával és 36 perccel ezelõtt készült, 22:00 UTC
Nyugati szél 25 kt széllökések: 36 kt
Hőmérséklet -10°C
Páratartalom 79%
Légköri nyomás 994 hPa
Látótávolság: 0.8 km
enyhe havazás, hófúvás

METAR: CYMU 082200Z 28025G36KT 1/2SM -SN BLSN VV009 M10/M13 A2935 RMK SN8 LAST STFD OBS/NEXT 09 1300Z SLP948

Idő: 23:36 (04:36 UTC)


TAF: hiányzik

Meteorológiai megfigyelések és előrejelzések több, mint 4000 repülőtéren (METAR és TAF jelentéseket).

A térképen piros és sárga pontok jelzik az elérhető meteorológiai állomásokat.

Mozgassa az egeret a pont fölött, hogy megjelenjen az állomás neve.

Azután kattintson az időjárási megfigyelések és előrejelzések megtekintéséhez.

A térkép megváltoztatása: kattintson a fekete keresztel jelölt zöld gombra ráközelítéshez, a vonallal jelölt zöld gombra távolításhoz, vagy a zöld nyilakra a szomszédos térképek eléréséhez.


METAR-TAF: